sensor_id;sensor_type;location;lat;lon;timestamp;P1;durP1;ratioP1;P2;durP2;ratioP2
21593;SDS011;10959;51.328;7.322;2023-02-28T00:01:23;7.80;;;4.90;;
21593;SDS011;10959;51.328;7.322;2023-02-28T00:03:50;4.63;;;4.03;;
21593;SDS011;10959;51.328;7.322;2023-02-28T00:06:17;5.17;;;4.50;;
21593;SDS011;10959;51.328;7.322;2023-02-28T00:08:45;5.10;;;4.00;;
21593;SDS011;10959;51.328;7.322;2023-02-28T00:11:12;5.07;;;3.93;;
21593;SDS011;10959;51.328;7.322;2023-02-28T00:13:40;4.97;;;4.23;;
21593;SDS011;10959;51.328;7.322;2023-02-28T00:16:12;5.23;;;4.37;;
21593;SDS011;10959;51.328;7.322;2023-02-28T00:18:40;7.13;;;4.73;;
21593;SDS011;10959;51.328;7.322;2023-02-28T00:21:07;5.30;;;4.03;;
21593;SDS011;10959;51.328;7.322;2023-02-28T00:23:33;6.30;;;4.37;;
21593;SDS011;10959;51.328;7.322;2023-02-28T00:26:02;6.03;;;4.73;;
21593;SDS011;10959;51.328;7.322;2023-02-28T00:28:29;6.57;;;4.70;;
21593;SDS011;10959;51.328;7.322;2023-02-28T00:30:55;7.70;;;4.53;;
21593;SDS011;10959;51.328;7.322;2023-02-28T00:33:22;6.07;;;4.50;;
21593;SDS011;10959;51.328;7.322;2023-02-28T00:35:48;7.07;;;4.30;;
21593;SDS011;10959;51.328;7.322;2023-02-28T00:38:15;5.37;;;4.03;;
21593;SDS011;10959;51.328;7.322;2023-02-28T00:40:42;5.73;;;3.90;;
21593;SDS011;10959;51.328;7.322;2023-02-28T00:43:10;6.93;;;4.57;;
21593;SDS011;10959;51.328;7.322;2023-02-28T00:45:36;6.23;;;4.83;;
21593;SDS011;10959;51.328;7.322;2023-02-28T00:48:03;9.87;;;4.97;;
21593;SDS011;10959;51.328;7.322;2023-02-28T00:50:30;5.40;;;4.07;;
21593;SDS011;10959;51.328;7.322;2023-02-28T00:52:56;7.10;;;5.07;;
21593;SDS011;10959;51.328;7.322;2023-02-28T00:55:22;6.90;;;4.17;;
21593;SDS011;10959;51.328;7.322;2023-02-28T00:57:49;5.97;;;4.40;;
21593;SDS011;10959;51.328;7.322;2023-02-28T01:00:17;5.00;;;4.50;;
21593;SDS011;10959;51.328;7.322;2023-02-28T01:02:44;6.50;;;4.60;;
21593;SDS011;10959;51.328;7.322;2023-02-28T01:05:10;7.30;;;4.87;;
21593;SDS011;10959;51.328;7.322;2023-02-28T01:07:37;7.53;;;5.30;;
21593;SDS011;10959;51.328;7.322;2023-02-28T01:10:04;7.73;;;4.67;;
21593;SDS011;10959;51.328;7.322;2023-02-28T01:12:30;8.30;;;4.77;;
21593;SDS011;10959;51.328;7.322;2023-02-28T01:14:57;7.93;;;5.60;;
21593;SDS011;10959;51.328;7.322;2023-02-28T01:17:25;9.43;;;5.83;;
21593;SDS011;10959;51.328;7.322;2023-02-28T01:19:52;6.53;;;4.93;;
21593;SDS011;10959;51.328;7.322;2023-02-28T01:22:20;9.00;;;5.73;;
21593;SDS011;10959;51.328;7.322;2023-02-28T01:24:46;7.73;;;4.73;;
21593;SDS011;10959;51.328;7.322;2023-02-28T01:27:13;6.73;;;5.03;;
21593;SDS011;10959;51.328;7.322;2023-02-28T01:29:40;7.80;;;4.53;;
21593;SDS011;10959;51.328;7.322;2023-02-28T01:32:06;6.17;;;5.07;;
21593;SDS011;10959;51.328;7.322;2023-02-28T01:34:34;6.90;;;4.70;;
21593;SDS011;10959;51.328;7.322;2023-02-28T01:37:01;4.70;;;4.20;;
21593;SDS011;10959;51.328;7.322;2023-02-28T01:39:28;7.37;;;5.03;;
21593;SDS011;10959;51.328;7.322;2023-02-28T01:41:55;7.20;;;4.53;;
21593;SDS011;10959;51.328;7.322;2023-02-28T01:47:40;7.27;;;4.67;;
21593;SDS011;10959;51.328;7.322;2023-02-28T01:50:12;4.83;;;4.40;;
21593;SDS011;10959;51.328;7.322;2023-02-28T01:52:40;7.53;;;4.37;;
21593;SDS011;10959;51.328;7.322;2023-02-28T01:55:09;6.77;;;4.27;;
21593;SDS011;10959;51.328;7.322;2023-02-28T01:57:38;6.43;;;4.23;;
21593;SDS011;10959;51.328;7.322;2023-02-28T02:00:09;4.60;;;3.90;;
21593;SDS011;10959;51.328;7.322;2023-02-28T02:02:40;5.37;;;3.83;;
21593;SDS011;10959;51.328;7.322;2023-02-28T02:05:11;6.53;;;4.73;;
21593;SDS011;10959;51.328;7.322;2023-02-28T02:07:41;6.63;;;4.67;;
21593;SDS011;10959;51.328;7.322;2023-02-28T02:10:12;7.20;;;4.80;;
21593;SDS011;10959;51.328;7.322;2023-02-28T02:12:48;6.97;;;4.57;;
21593;SDS011;10959;51.328;7.322;2023-02-28T02:15:29;7.83;;;4.60;;
21593;SDS011;10959;51.328;7.322;2023-02-28T02:18:01;5.70;;;4.40;;
21593;SDS011;10959;51.328;7.322;2023-02-28T02:20:46;5.57;;;4.60;;
21593;SDS011;10959;51.328;7.322;2023-02-28T02:23:33;9.00;;;5.30;;
21593;SDS011;10959;51.328;7.322;2023-02-28T02:26:27;8.30;;;6.00;;
21593;SDS011;10959;51.328;7.322;2023-02-28T02:29:16;6.90;;;5.80;;
21593;SDS011;10959;51.328;7.322;2023-02-28T02:32:08;6.63;;;5.57;;
21593;SDS011;10959;51.328;7.322;2023-02-28T02:34:53;6.77;;;5.97;;
21593;SDS011;10959;51.328;7.322;2023-02-28T02:37:27;7.20;;;4.90;;
21593;SDS011;10959;51.328;7.322;2023-02-28T02:40:04;9.53;;;6.20;;
21593;SDS011;10959;51.328;7.322;2023-02-28T02:42:39;7.27;;;5.63;;
21593;SDS011;10959;51.328;7.322;2023-02-28T02:45:12;7.10;;;5.27;;
21593;SDS011;10959;51.328;7.322;2023-02-28T02:47:43;7.87;;;6.27;;
21593;SDS011;10959;51.328;7.322;2023-02-28T02:50:13;9.53;;;5.80;;
21593;SDS011;10959;51.328;7.322;2023-02-28T02:52:44;7.23;;;5.90;;
21593;SDS011;10959;51.328;7.322;2023-02-28T02:55:15;6.70;;;5.27;;
21593;SDS011;10959;51.328;7.322;2023-02-28T02:57:45;8.70;;;6.03;;
21593;SDS011;10959;51.328;7.322;2023-02-28T03:00:15;7.93;;;5.70;;
21593;SDS011;10959;51.328;7.322;2023-02-28T03:02:45;10.33;;;5.57;;
21593;SDS011;10959;51.328;7.322;2023-02-28T03:05:17;9.93;;;6.03;;
21593;SDS011;10959;51.328;7.322;2023-02-28T03:07:45;6.90;;;5.90;;
21593;SDS011;10959;51.328;7.322;2023-02-28T03:10:32;8.97;;;6.27;;
21593;SDS011;10959;51.328;7.322;2023-02-28T03:13:05;8.80;;;5.93;;
21593;SDS011;10959;51.328;7.322;2023-02-28T03:15:46;7.37;;;4.43;;
21593;SDS011;10959;51.328;7.322;2023-02-28T03:18:28;7.73;;;5.87;;
21593;SDS011;10959;51.328;7.322;2023-02-28T03:21:06;8.10;;;5.70;;
21593;SDS011;10959;51.328;7.322;2023-02-28T03:23:42;6.43;;;5.33;;
21593;SDS011;10959;51.328;7.322;2023-02-28T03:26:17;9.57;;;5.80;;
21593;SDS011;10959;51.328;7.322;2023-02-28T03:28:51;6.53;;;5.10;;
21593;SDS011;10959;51.328;7.322;2023-02-28T03:31:25;7.27;;;5.10;;
21593;SDS011;10959;51.328;7.322;2023-02-28T03:33:58;6.10;;;4.60;;
21593;SDS011;10959;51.328;7.322;2023-02-28T03:36:29;7.93;;;4.77;;
21593;SDS011;10959;51.328;7.322;2023-02-28T03:38:59;8.63;;;5.00;;
21593;SDS011;10959;51.328;7.322;2023-02-28T03:41:31;7.07;;;4.77;;
21593;SDS011;10959;51.328;7.322;2023-02-28T03:44:03;7.37;;;4.73;;
21593;SDS011;10959;51.328;7.322;2023-02-28T03:46:35;6.37;;;4.43;;
21593;SDS011;10959;51.328;7.322;2023-02-28T03:49:08;5.60;;;4.93;;
21593;SDS011;10959;51.328;7.322;2023-02-28T03:51:42;7.10;;;4.80;;
21593;SDS011;10959;51.328;7.322;2023-02-28T03:54:12;6.17;;;4.73;;
21593;SDS011;10959;51.328;7.322;2023-02-28T03:56:45;7.20;;;4.10;;
21593;SDS011;10959;51.328;7.322;2023-02-28T03:59:16;4.47;;;3.73;;
21593;SDS011;10959;51.328;7.322;2023-02-28T04:01:48;6.37;;;4.57;;
21593;SDS011;10959;51.328;7.322;2023-02-28T04:04:17;4.70;;;3.80;;
21593;SDS011;10959;51.328;7.322;2023-02-28T04:06:45;5.40;;;3.60;;
21593;SDS011;10959;51.328;7.322;2023-02-28T04:09:15;6.20;;;3.30;;
21593;SDS011;10959;51.328;7.322;2023-02-28T04:11:42;4.70;;;3.53;;
21593;SDS011;10959;51.328;7.322;2023-02-28T04:14:11;4.37;;;3.70;;
21593;SDS011;10959;51.328;7.322;2023-02-28T04:16:39;4.87;;;3.73;;
21593;SDS011;10959;51.328;7.322;2023-02-28T04:19:07;6.40;;;3.90;;
21593;SDS011;10959;51.328;7.322;2023-02-28T04:21:36;6.73;;;4.07;;
21593;SDS011;10959;51.328;7.322;2023-02-28T04:24:06;7.77;;;3.50;;
21593;SDS011;10959;51.328;7.322;2023-02-28T04:26:39;5.00;;;3.90;;
21593;SDS011;10959;51.328;7.322;2023-02-28T04:29:08;3.67;;;3.37;;
21593;SDS011;10959;51.328;7.322;2023-02-28T04:31:36;6.07;;;3.47;;
21593;SDS011;10959;51.328;7.322;2023-02-28T04:34:03;4.53;;;3.80;;
21593;SDS011;10959;51.328;7.322;2023-02-28T04:36:29;5.33;;;3.63;;
21593;SDS011;10959;51.328;7.322;2023-02-28T04:38:56;5.97;;;3.87;;
21593;SDS011;10959;51.328;7.322;2023-02-28T04:41:24;5.83;;;3.63;;
21593;SDS011;10959;51.328;7.322;2023-02-28T04:43:50;3.77;;;3.40;;
21593;SDS011;10959;51.328;7.322;2023-02-28T04:46:17;4.53;;;3.37;;
21593;SDS011;10959;51.328;7.322;2023-02-28T04:48:44;4.03;;;3.63;;
21593;SDS011;10959;51.328;7.322;2023-02-28T04:51:11;6.13;;;3.07;;
21593;SDS011;10959;51.328;7.322;2023-02-28T04:53:39;4.63;;;3.67;;
21593;SDS011;10959;51.328;7.322;2023-02-28T04:56:08;5.13;;;3.27;;
21593;SDS011;10959;51.328;7.322;2023-02-28T04:58:37;4.80;;;3.13;;
21593;SDS011;10959;51.328;7.322;2023-02-28T05:01:05;4.87;;;3.23;;
21593;SDS011;10959;51.328;7.322;2023-02-28T05:03:37;4.47;;;3.03;;
21593;SDS011;10959;51.328;7.322;2023-02-28T05:06:05;4.87;;;3.60;;
21593;SDS011;10959;51.328;7.322;2023-02-28T05:08:32;4.90;;;2.93;;
21593;SDS011;10959;51.328;7.322;2023-02-28T05:10:58;6.90;;;3.93;;
21593;SDS011;10959;51.328;7.322;2023-02-28T05:13:25;6.03;;;3.40;;
21593;SDS011;10959;51.328;7.322;2023-02-28T05:15:54;4.07;;;3.20;;
21593;SDS011;10959;51.328;7.322;2023-02-28T05:18:21;4.13;;;3.37;;
21593;SDS011;10959;51.328;7.322;2023-02-28T05:20:47;3.47;;;2.90;;
21593;SDS011;10959;51.328;7.322;2023-02-28T05:23:14;6.50;;;3.13;;
21593;SDS011;10959;51.328;7.322;2023-02-28T05:25:41;4.63;;;3.60;;
21593;SDS011;10959;51.328;7.322;2023-02-28T05:28:08;3.50;;;2.77;;
21593;SDS011;10959;51.328;7.322;2023-02-28T05:30:35;2.97;;;2.67;;
21593;SDS011;10959;51.328;7.322;2023-02-28T05:33:02;3.20;;;2.90;;
21593;SDS011;10959;51.328;7.322;2023-02-28T05:35:29;4.03;;;2.80;;
21593;SDS011;10959;51.328;7.322;2023-02-28T05:37:55;4.40;;;2.93;;
21593;SDS011;10959;51.328;7.322;2023-02-28T05:40:22;3.13;;;2.40;;
21593;SDS011;10959;51.328;7.322;2023-02-28T05:42:49;4.20;;;2.97;;
21593;SDS011;10959;51.328;7.322;2023-02-28T05:45:16;4.27;;;3.07;;
21593;SDS011;10959;51.328;7.322;2023-02-28T05:47:43;5.13;;;3.17;;
21593;SDS011;10959;51.328;7.322;2023-02-28T05:50:11;4.17;;;3.43;;
21593;SDS011;10959;51.328;7.322;2023-02-28T05:52:37;4.07;;;3.03;;
21593;SDS011;10959;51.328;7.322;2023-02-28T05:55:04;3.63;;;3.10;;
21593;SDS011;10959;51.328;7.322;2023-02-28T05:57:31;3.57;;;3.20;;
21593;SDS011;10959;51.328;7.322;2023-02-28T05:59:58;5.27;;;2.93;;
21593;SDS011;10959;51.328;7.322;2023-02-28T06:02:24;3.80;;;2.60;;
21593;SDS011;10959;51.328;7.322;2023-02-28T06:04:50;4.33;;;3.10;;
21593;SDS011;10959;51.328;7.322;2023-02-28T06:07:18;4.20;;;2.80;;
21593;SDS011;10959;51.328;7.322;2023-02-28T06:09:47;3.83;;;3.20;;
21593;SDS011;10959;51.328;7.322;2023-02-28T06:12:14;4.40;;;3.10;;
21593;SDS011;10959;51.328;7.322;2023-02-28T06:14:40;3.67;;;3.30;;
21593;SDS011;10959;51.328;7.322;2023-02-28T06:17:08;3.27;;;2.70;;
21593;SDS011;10959;51.328;7.322;2023-02-28T06:19:36;4.20;;;3.10;;
21593;SDS011;10959;51.328;7.322;2023-02-28T06:22:03;4.70;;;2.47;;
21593;SDS011;10959;51.328;7.322;2023-02-28T06:24:31;3.10;;;2.80;;
21593;SDS011;10959;51.328;7.322;2023-02-28T06:26:58;4.67;;;2.60;;
21593;SDS011;10959;51.328;7.322;2023-02-28T06:29:29;3.53;;;2.80;;
21593;SDS011;10959;51.328;7.322;2023-02-28T06:31:56;4.53;;;3.23;;
21593;SDS011;10959;51.328;7.322;2023-02-28T06:34:22;3.60;;;3.07;;
21593;SDS011;10959;51.328;7.322;2023-02-28T06:36:50;5.10;;;3.17;;
21593;SDS011;10959;51.328;7.322;2023-02-28T06:39:18;4.20;;;3.20;;
21593;SDS011;10959;51.328;7.322;2023-02-28T06:41:46;6.37;;;2.83;;
21593;SDS011;10959;51.328;7.322;2023-02-28T06:44:13;6.70;;;2.90;;
21593;SDS011;10959;51.328;7.322;2023-02-28T06:46:43;4.37;;;3.07;;
21593;SDS011;10959;51.328;7.322;2023-02-28T06:49:10;3.60;;;3.17;;
21593;SDS011;10959;51.328;7.322;2023-02-28T06:51:38;5.43;;;3.27;;
21593;SDS011;10959;51.328;7.322;2023-02-28T06:54:06;5.57;;;3.57;;
21593;SDS011;10959;51.328;7.322;2023-02-28T06:56:34;5.37;;;3.50;;
21593;SDS011;10959;51.328;7.322;2023-02-28T06:59:02;5.70;;;3.33;;
21593;SDS011;10959;51.328;7.322;2023-02-28T07:01:29;4.83;;;3.13;;
21593;SDS011;10959;51.328;7.322;2023-02-28T07:03:57;5.77;;;3.77;;
21593;SDS011;10959;51.328;7.322;2023-02-28T07:06:25;5.30;;;3.53;;
21593;SDS011;10959;51.328;7.322;2023-02-28T07:08:51;4.80;;;3.80;;
21593;SDS011;10959;51.328;7.322;2023-02-28T07:11:19;6.07;;;3.73;;
21593;SDS011;10959;51.328;7.322;2023-02-28T07:13:47;6.30;;;3.57;;
21593;SDS011;10959;51.328;7.322;2023-02-28T07:16:15;5.40;;;3.63;;
21593;SDS011;10959;51.328;7.322;2023-02-28T07:18:41;5.70;;;4.07;;
21593;SDS011;10959;51.328;7.322;2023-02-28T07:21:08;4.83;;;3.50;;
21593;SDS011;10959;51.328;7.322;2023-02-28T07:23:36;3.60;;;3.30;;
21593;SDS011;10959;51.328;7.322;2023-02-28T07:26:04;4.27;;;3.47;;
21593;SDS011;10959;51.328;7.322;2023-02-28T07:28:31;5.87;;;3.53;;
21593;SDS011;10959;51.328;7.322;2023-02-28T07:31:02;3.67;;;3.27;;
21593;SDS011;10959;51.328;7.322;2023-02-28T07:33:30;4.57;;;2.93;;
21593;SDS011;10959;51.328;7.322;2023-02-28T07:35:59;4.07;;;3.20;;
21593;SDS011;10959;51.328;7.322;2023-02-28T07:38:26;5.33;;;3.20;;
21593;SDS011;10959;51.328;7.322;2023-02-28T07:40:53;4.03;;;3.10;;
21593;SDS011;10959;51.328;7.322;2023-02-28T07:43:19;4.00;;;3.43;;
21593;SDS011;10959;51.328;7.322;2023-02-28T07:45:46;4.80;;;3.17;;
21593;SDS011;10959;51.328;7.322;2023-02-28T07:48:12;4.50;;;2.93;;
21593;SDS011;10959;51.328;7.322;2023-02-28T07:50:40;3.20;;;2.60;;
21593;SDS011;10959;51.328;7.322;2023-02-28T07:53:07;3.83;;;2.83;;
21593;SDS011;10959;51.328;7.322;2023-02-28T07:55:33;4.77;;;3.00;;
21593;SDS011;10959;51.328;7.322;2023-02-28T07:58:00;3.13;;;2.70;;
21593;SDS011;10959;51.328;7.322;2023-02-28T08:00:26;3.40;;;2.97;;
21593;SDS011;10959;51.328;7.322;2023-02-28T08:02:54;3.93;;;2.77;;
21593;SDS011;10959;51.328;7.322;2023-02-28T08:05:20;4.90;;;2.97;;
21593;SDS011;10959;51.328;7.322;2023-02-28T08:07:49;4.37;;;3.23;;
21593;SDS011;10959;51.328;7.322;2023-02-28T08:10:16;7.73;;;3.30;;
21593;SDS011;10959;51.328;7.322;2023-02-28T08:12:43;4.83;;;3.10;;
21593;SDS011;10959;51.328;7.322;2023-02-28T08:15:09;5.30;;;3.43;;
21593;SDS011;10959;51.328;7.322;2023-02-28T08:17:36;5.57;;;3.50;;
21593;SDS011;10959;51.328;7.322;2023-02-28T08:20:03;5.57;;;2.90;;
21593;SDS011;10959;51.328;7.322;2023-02-28T08:22:30;3.60;;;2.60;;
21593;SDS011;10959;51.328;7.322;2023-02-28T08:24:58;4.40;;;3.23;;
21593;SDS011;10959;51.328;7.322;2023-02-28T08:27:25;4.47;;;2.83;;
21593;SDS011;10959;51.328;7.322;2023-02-28T08:29:51;3.80;;;2.93;;
21593;SDS011;10959;51.328;7.322;2023-02-28T08:32:18;3.13;;;2.83;;
21593;SDS011;10959;51.328;7.322;2023-02-28T08:34:45;3.97;;;3.00;;
21593;SDS011;10959;51.328;7.322;2023-02-28T08:37:11;4.10;;;3.70;;
21593;SDS011;10959;51.328;7.322;2023-02-28T08:39:38;3.80;;;3.10;;
21593;SDS011;10959;51.328;7.322;2023-02-28T08:42:06;3.80;;;3.37;;
21593;SDS011;10959;51.328;7.322;2023-02-28T08:44:33;5.27;;;3.67;;
21593;SDS011;10959;51.328;7.322;2023-02-28T08:46:59;4.13;;;3.20;;
21593;SDS011;10959;51.328;7.322;2023-02-28T08:49:26;4.10;;;3.10;;
21593;SDS011;10959;51.328;7.322;2023-02-28T08:51:52;5.57;;;3.33;;
21593;SDS011;10959;51.328;7.322;2023-02-28T08:54:20;6.30;;;3.20;;
21593;SDS011;10959;51.328;7.322;2023-02-28T08:56:47;5.17;;;3.20;;
21593;SDS011;10959;51.328;7.322;2023-02-28T08:59:15;3.87;;;3.10;;
21593;SDS011;10959;51.328;7.322;2023-02-28T09:01:42;3.50;;;3.00;;
21593;SDS011;10959;51.328;7.322;2023-02-28T09:04:09;3.10;;;2.57;;
21593;SDS011;10959;51.328;7.322;2023-02-28T09:06:36;3.93;;;2.73;;
21593;SDS011;10959;51.328;7.322;2023-02-28T09:09:03;5.40;;;2.63;;
21593;SDS011;10959;51.328;7.322;2023-02-28T09:11:32;4.13;;;2.53;;
21593;SDS011;10959;51.328;7.322;2023-02-28T09:13:59;5.10;;;2.80;;
21593;SDS011;10959;51.328;7.322;2023-02-28T09:16:27;2.80;;;2.30;;
21593;SDS011;10959;51.328;7.322;2023-02-28T09:18:53;4.37;;;2.27;;
21593;SDS011;10959;51.328;7.322;2023-02-28T09:21:20;3.30;;;2.50;;
21593;SDS011;10959;51.328;7.322;2023-02-28T09:23:47;3.57;;;2.27;;
21593;SDS011;10959;51.328;7.322;2023-02-28T09:26:15;3.27;;;2.30;;
21593;SDS011;10959;51.328;7.322;2023-02-28T09:28:43;4.37;;;2.80;;
21593;SDS011;10959;51.328;7.322;2023-02-28T09:31:11;2.40;;;2.07;;
21593;SDS011;10959;51.328;7.322;2023-02-28T09:33:40;3.57;;;2.27;;
21593;SDS011;10959;51.328;7.322;2023-02-28T09:36:07;4.07;;;2.57;;
21593;SDS011;10959;51.328;7.322;2023-02-28T09:38:34;3.00;;;2.00;;
21593;SDS011;10959;51.328;7.322;2023-02-28T09:41:02;2.97;;;1.73;;
21593;SDS011;10959;51.328;7.322;2023-02-28T09:43:37;3.03;;;1.90;;
21593;SDS011;10959;51.328;7.322;2023-02-28T09:46:08;2.03;;;1.50;;
21593;SDS011;10959;51.328;7.322;2023-02-28T09:48:45;1.87;;;1.60;;
21593;SDS011;10959;51.328;7.322;2023-02-28T09:51:15;2.00;;;1.60;;
21593;SDS011;10959;51.328;7.322;2023-02-28T09:53:56;3.73;;;1.73;;
21593;SDS011;10959;51.328;7.322;2023-02-28T09:56:24;2.57;;;1.87;;
21593;SDS011;10959;51.328;7.322;2023-02-28T09:58:55;2.10;;;1.50;;
21593;SDS011;10959;51.328;7.322;2023-02-28T10:01:25;1.90;;;1.63;;
21593;SDS011;10959;51.328;7.322;2023-02-28T10:03:59;1.87;;;1.50;;
21593;SDS011;10959;51.328;7.322;2023-02-28T10:06:30;3.70;;;1.77;;
21593;SDS011;10959;51.328;7.322;2023-02-28T10:09:03;1.73;;;1.50;;
21593;SDS011;10959;51.328;7.322;2023-02-28T10:11:34;3.40;;;1.83;;
21593;SDS011;10959;51.328;7.322;2023-02-28T10:14:05;1.90;;;1.70;;
21593;SDS011;10959;51.328;7.322;2023-02-28T10:16:40;2.50;;;1.73;;
21593;SDS011;10959;51.328;7.322;2023-02-28T10:19:13;1.70;;;1.60;;
21593;SDS011;10959;51.328;7.322;2023-02-28T10:21:46;2.43;;;1.93;;
21593;SDS011;10959;51.328;7.322;2023-02-28T10:24:20;2.10;;;1.60;;
21593;SDS011;10959;51.328;7.322;2023-02-28T10:26:56;2.30;;;1.83;;
21593;SDS011;10959;51.328;7.322;2023-02-28T10:29:27;1.90;;;1.60;;
21593;SDS011;10959;51.328;7.322;2023-02-28T10:31:58;2.00;;;1.50;;
21593;SDS011;10959;51.328;7.322;2023-02-28T10:34:29;1.87;;;1.67;;
21593;SDS011;10959;51.328;7.322;2023-02-28T10:36:55;2.03;;;1.70;;
21593;SDS011;10959;51.328;7.322;2023-02-28T10:39:39;2.47;;;1.80;;
21593;SDS011;10959;51.328;7.322;2023-02-28T10:42:18;2.90;;;1.53;;
21593;SDS011;10959;51.328;7.322;2023-02-28T10:44:47;2.40;;;1.90;;
21593;SDS011;10959;51.328;7.322;2023-02-28T10:47:14;3.77;;;1.90;;
21593;SDS011;10959;51.328;7.322;2023-02-28T10:49:48;1.90;;;1.53;;
21593;SDS011;10959;51.328;7.322;2023-02-28T10:52:32;1.70;;;1.50;;
21593;SDS011;10959;51.328;7.322;2023-02-28T10:55:14;2.80;;;1.50;;
21593;SDS011;10959;51.328;7.322;2023-02-28T10:57:45;3.07;;;1.90;;
21593;SDS011;10959;51.328;7.322;2023-02-28T11:00:14;3.77;;;2.10;;
21593;SDS011;10959;51.328;7.322;2023-02-28T11:02:43;3.07;;;1.70;;
21593;SDS011;10959;51.328;7.322;2023-02-28T11:05:26;2.20;;;1.70;;
21593;SDS011;10959;51.328;7.322;2023-02-28T11:07:55;3.20;;;2.13;;
21593;SDS011;10959;51.328;7.322;2023-02-28T11:10:26;2.37;;;1.80;;
21593;SDS011;10959;51.328;7.322;2023-02-28T11:12:57;4.93;;;2.20;;
21593;SDS011;10959;51.328;7.322;2023-02-28T11:15:25;2.23;;;1.83;;
21593;SDS011;10959;51.328;7.322;2023-02-28T11:17:53;1.87;;;1.70;;
21593;SDS011;10959;51.328;7.322;2023-02-28T11:20:21;2.90;;;1.70;;
21593;SDS011;10959;51.328;7.322;2023-02-28T11:22:52;2.00;;;1.70;;
21593;SDS011;10959;51.328;7.322;2023-02-28T11:25:22;3.13;;;1.50;;
21593;SDS011;10959;51.328;7.322;2023-02-28T11:27:51;3.67;;;1.80;;
21593;SDS011;10959;51.328;7.322;2023-02-28T11:30:32;3.43;;;1.90;;
21593;SDS011;10959;51.328;7.322;2023-02-28T11:33:01;1.63;;;1.50;;
21593;SDS011;10959;51.328;7.322;2023-02-28T11:35:46;1.80;;;1.60;;
21593;SDS011;10959;51.328;7.322;2023-02-28T11:38:15;1.83;;;1.47;;
21593;SDS011;10959;51.328;7.322;2023-02-28T11:40:43;2.30;;;1.70;;
21593;SDS011;10959;51.328;7.322;2023-02-28T11:43:22;2.23;;;1.50;;
21593;SDS011;10959;51.328;7.322;2023-02-28T11:46:06;3.63;;;2.03;;
21593;SDS011;10959;51.328;7.322;2023-02-28T11:48:44;3.23;;;1.30;;
21593;SDS011;10959;51.328;7.322;2023-02-28T11:51:22;1.83;;;1.60;;
21593;SDS011;10959;51.328;7.322;2023-02-28T11:54:13;2.60;;;1.73;;
21593;SDS011;10959;51.328;7.322;2023-02-28T11:56:55;2.27;;;1.57;;
21593;SDS011;10959;51.328;7.322;2023-02-28T11:59:30;1.77;;;1.60;;
21593;SDS011;10959;51.328;7.322;2023-02-28T12:02:19;2.10;;;1.80;;
21593;SDS011;10959;51.328;7.322;2023-02-28T12:04:52;3.23;;;1.77;;
21593;SDS011;10959;51.328;7.322;2023-02-28T12:07:34;2.53;;;1.90;;
21593;SDS011;10959;51.328;7.322;2023-02-28T12:10:11;3.57;;;1.80;;
21593;SDS011;10959;51.328;7.322;2023-02-28T12:12:48;3.13;;;1.83;;
21593;SDS011;10959;51.328;7.322;2023-02-28T12:15:32;4.20;;;1.90;;
21593;SDS011;10959;51.328;7.322;2023-02-28T12:18:15;3.03;;;1.90;;
21593;SDS011;10959;51.328;7.322;2023-02-28T12:20:52;2.33;;;1.87;;
21593;SDS011;10959;51.328;7.322;2023-02-28T12:23:47;4.60;;;1.90;;
21593;SDS011;10959;51.328;7.322;2023-02-28T12:26:30;2.07;;;1.93;;
21593;SDS011;10959;51.328;7.322;2023-02-28T12:29:04;2.73;;;1.90;;
21593;SDS011;10959;51.328;7.322;2023-02-28T12:31:40;2.70;;;1.97;;
21593;SDS011;10959;51.328;7.322;2023-02-28T12:34:13;2.50;;;1.53;;
21593;SDS011;10959;51.328;7.322;2023-02-28T12:36:45;2.90;;;2.10;;
21593;SDS011;10959;51.328;7.322;2023-02-28T12:39:16;2.90;;;1.57;;
21593;SDS011;10959;51.328;7.322;2023-02-28T12:41:47;2.07;;;1.87;;
21593;SDS011;10959;51.328;7.322;2023-02-28T12:44:19;3.40;;;2.00;;
21593;SDS011;10959;51.328;7.322;2023-02-28T12:46:55;2.70;;;2.37;;
21593;SDS011;10959;51.328;7.322;2023-02-28T12:49:28;2.50;;;1.93;;
21593;SDS011;10959;51.328;7.322;2023-02-28T12:51:57;3.43;;;1.80;;
21593;SDS011;10959;51.328;7.322;2023-02-28T12:54:28;4.10;;;1.97;;
21593;SDS011;10959;51.328;7.322;2023-02-28T12:57:00;1.70;;;1.60;;
21593;SDS011;10959;51.328;7.322;2023-02-28T12:59:34;3.60;;;1.93;;
21593;SDS011;10959;51.328;7.322;2023-02-28T13:02:09;2.00;;;1.70;;
21593;SDS011;10959;51.328;7.322;2023-02-28T13:05:10;1.90;;;1.70;;
21593;SDS011;10959;51.328;7.322;2023-02-28T13:07:52;2.70;;;2.10;;
21593;SDS011;10959;51.328;7.322;2023-02-28T13:10:43;2.90;;;2.27;;
21593;SDS011;10959;51.328;7.322;2023-02-28T13:13:13;2.37;;;1.90;;
21593;SDS011;10959;51.328;7.322;2023-02-28T13:15:56;2.30;;;1.90;;
21593;SDS011;10959;51.328;7.322;2023-02-28T13:18:29;2.23;;;1.87;;
21593;SDS011;10959;51.328;7.322;2023-02-28T13:20:58;2.30;;;2.10;;
21593;SDS011;10959;51.328;7.322;2023-02-28T13:23:37;2.40;;;2.20;;
21593;SDS011;10959;51.328;7.322;2023-02-28T13:26:07;2.20;;;2.00;;
21593;SDS011;10959;51.328;7.322;2023-02-28T13:31:25;2.37;;;2.03;;
21593;SDS011;10959;51.328;7.322;2023-02-28T13:34:11;1.87;;;1.77;;
21593;SDS011;10959;51.328;7.322;2023-02-28T13:36:39;2.20;;;2.00;;
21593;SDS011;10959;51.328;7.322;2023-02-28T13:42:23;2.43;;;1.90;;
21593;SDS011;10959;51.328;7.322;2023-02-28T13:45:22;2.40;;;2.00;;
21593;SDS011;10959;51.328;7.322;2023-02-28T13:47:51;2.90;;;2.20;;
21593;SDS011;10959;51.328;7.322;2023-02-28T13:50:24;4.77;;;2.43;;
21593;SDS011;10959;51.328;7.322;2023-02-28T13:52:59;2.87;;;2.27;;
21593;SDS011;10959;51.328;7.322;2023-02-28T13:55:52;2.40;;;2.03;;
21593;SDS011;10959;51.328;7.322;2023-02-28T13:58:28;3.13;;;2.07;;
21593;SDS011;10959;51.328;7.322;2023-02-28T14:04:06;4.60;;;2.30;;
21593;SDS011;10959;51.328;7.322;2023-02-28T14:06:48;2.40;;;2.20;;
21593;SDS011;10959;51.328;7.322;2023-02-28T14:09:18;2.00;;;1.83;;
21593;SDS011;10959;51.328;7.322;2023-02-28T14:11:50;2.83;;;2.53;;
21593;SDS011;10959;51.328;7.322;2023-02-28T14:17:22;3.50;;;2.03;;
21593;SDS011;10959;51.328;7.322;2023-02-28T14:19:51;2.43;;;2.20;;
21593;SDS011;10959;51.328;7.322;2023-02-28T14:22:21;2.20;;;1.87;;
21593;SDS011;10959;51.328;7.322;2023-02-28T14:25:09;2.37;;;2.13;;
21593;SDS011;10959;51.328;7.322;2023-02-28T14:27:43;2.40;;;2.00;;
21593;SDS011;10959;51.328;7.322;2023-02-28T14:30:29;2.77;;;2.13;;
21593;SDS011;10959;51.328;7.322;2023-02-28T14:33:23;2.13;;;1.83;;
21593;SDS011;10959;51.328;7.322;2023-02-28T14:35:57;3.03;;;2.00;;
21593;SDS011;10959;51.328;7.322;2023-02-28T14:38:42;2.40;;;2.00;;
21593;SDS011;10959;51.328;7.322;2023-02-28T14:41:14;3.57;;;2.20;;
21593;SDS011;10959;51.328;7.322;2023-02-28T14:43:49;2.50;;;1.77;;
21593;SDS011;10959;51.328;7.322;2023-02-28T14:46:20;4.10;;;2.20;;
21593;SDS011;10959;51.328;7.322;2023-02-28T14:48:49;2.97;;;2.40;;
21593;SDS011;10959;51.328;7.322;2023-02-28T14:51:20;2.40;;;2.20;;
21593;SDS011;10959;51.328;7.322;2023-02-28T14:53:49;2.43;;;2.23;;
21593;SDS011;10959;51.328;7.322;2023-02-28T14:56:22;3.50;;;2.57;;
21593;SDS011;10959;51.328;7.322;2023-02-28T14:58:51;3.40;;;2.80;;
21593;SDS011;10959;51.328;7.322;2023-02-28T15:01:21;4.33;;;2.40;;
21593;SDS011;10959;51.328;7.322;2023-02-28T15:03:56;2.77;;;2.10;;
21593;SDS011;10959;51.328;7.322;2023-02-28T15:06:24;4.07;;;2.60;;
21593;SDS011;10959;51.328;7.322;2023-02-28T15:09:06;3.63;;;2.50;;
21593;SDS011;10959;51.328;7.322;2023-02-28T15:11:33;3.53;;;2.50;;
21593;SDS011;10959;51.328;7.322;2023-02-28T15:14:01;4.77;;;3.27;;
21593;SDS011;10959;51.328;7.322;2023-02-28T15:16:31;2.50;;;2.23;;
21593;SDS011;10959;51.328;7.322;2023-02-28T15:19:01;2.50;;;2.30;;
21593;SDS011;10959;51.328;7.322;2023-02-28T15:21:32;4.40;;;2.33;;
21593;SDS011;10959;51.328;7.322;2023-02-28T15:24:02;4.60;;;2.87;;
21593;SDS011;10959;51.328;7.322;2023-02-28T15:26:32;4.20;;;2.70;;